Terminal Aerodrome Forecast
Issued by NWS

Home | Current Version | Previous Version | Text Only | Print | Product List | Glossary On
Versions: 1 2 3 4 5 6 7 8 9 10 11 12 13 14
000
FTUS43 KAPX 311120
TAFMBL
TAF
KMBL 311120Z 3112/0112 35018G35KT P6SM -SHRA OVC018
     FM311600 35020G35KT 6SM -SHRASN OVC025
     FM312100 36019G30KT P6SM BKN035
     FM010300 36013G20KT P6SM SCT035=

USA.gov is the U.S. government's official web portal to all federal, state and local government web resources and services.